createdAt,value
2022-08-11T00:01:22.339Z,2.40
2022-08-11T00:03:58.786Z,2.13
2022-08-11T00:06:31.871Z,2.42
2022-08-11T00:09:00.771Z,2.92
2022-08-11T00:11:35.294Z,3.30
2022-08-11T00:14:04.476Z,2.22
2022-08-11T00:16:33.113Z,2.20
2022-08-11T00:19:01.984Z,2.45
2022-08-11T00:22:02.789Z,2.40
2022-08-11T00:24:18.586Z,2.60
2022-08-11T00:26:51.422Z,2.88
2022-08-11T00:29:20.089Z,2.80
2022-08-11T00:31:56.088Z,2.45
2022-08-11T00:34:33.361Z,2.60
2022-08-11T00:37:09.382Z,2.80
2022-08-11T00:39:49.929Z,2.60
2022-08-11T00:42:54.457Z,3.00
2022-08-11T00:45:27.373Z,2.60
2022-08-11T00:48:19.877Z,2.97
2022-08-11T00:51:09.400Z,2.75
2022-08-11T00:53:57.798Z,2.60
2022-08-11T00:56:36.836Z,3.10
2022-08-11T00:59:35.318Z,2.47
2022-08-11T01:02:19.709Z,2.58
2022-08-11T01:05:18.908Z,2.75
2022-08-11T01:08:00.574Z,2.92
2022-08-11T01:10:39.440Z,2.95
2022-08-11T01:13:17.023Z,2.75
2022-08-11T01:16:05.999Z,4.05
2022-08-11T01:18:55.318Z,3.05
2022-08-11T01:21:57.246Z,3.33
2022-08-11T01:25:02.043Z,3.13
2022-08-11T01:27:59.451Z,2.95
2022-08-11T01:31:01.186Z,3.40
2022-08-11T01:33:56.476Z,2.63
2022-08-11T01:36:53.556Z,3.55
2022-08-11T01:40:04.749Z,2.92
2022-08-11T01:43:32.852Z,5.18
2022-08-11T01:46:11.286Z,2.83
2022-08-11T01:48:50.124Z,3.03
2022-08-11T01:51:43.265Z,2.83
2022-08-11T01:55:07.817Z,2.85
2022-08-11T01:57:47.806Z,3.40
2022-08-11T02:00:26.219Z,2.83
2022-08-11T02:03:24.390Z,3.00
2022-08-11T02:06:32.921Z,3.05
2022-08-11T02:09:20.210Z,3.17
2022-08-11T02:11:51.026Z,3.05
2022-08-11T02:15:04.514Z,3.47
2022-08-11T02:17:48.790Z,3.60
2022-08-11T02:20:44.592Z,3.17
2022-08-11T02:24:03.924Z,3.72
2022-08-11T02:26:48.698Z,3.20
2022-08-11T02:29:29.813Z,3.13
2022-08-11T02:32:33.844Z,3.40
2022-08-11T02:35:14.185Z,3.42
2022-08-11T02:38:01.258Z,4.65
2022-08-11T02:40:56.650Z,3.70
2022-08-11T02:43:27.039Z,2.70
2022-08-11T02:46:06.305Z,3.22
2022-08-11T02:49:05.483Z,3.60
2022-08-11T02:51:38.763Z,3.30
2022-08-11T02:54:18.086Z,3.67
2022-08-11T02:57:02.078Z,3.45
2022-08-11T02:59:53.271Z,3.33
2022-08-11T03:02:32.240Z,3.72
2022-08-11T03:05:11.959Z,3.60
2022-08-11T03:08:03.219Z,3.63
2022-08-11T03:11:06.433Z,3.58
2022-08-11T03:13:57.545Z,3.30
2022-08-11T03:16:48.372Z,3.80
2022-08-11T03:19:37.115Z,4.55
2022-08-11T03:22:07.579Z,3.75
2022-08-11T03:24:54.892Z,3.78
2022-08-11T03:27:31.066Z,3.78
2022-08-11T03:30:04.299Z,3.97
2022-08-11T03:33:34.248Z,3.85
2022-08-11T03:36:20.195Z,3.72
2022-08-11T03:39:08.513Z,4.00
2022-08-11T03:42:03.115Z,3.72
2022-08-11T03:45:06.638Z,4.43
2022-08-11T03:47:55.621Z,4.22
2022-08-11T03:50:42.494Z,3.83
2022-08-11T03:53:34.364Z,4.60
2022-08-11T03:56:35.512Z,4.47
2022-08-11T04:01:50.679Z,4.13
2022-08-11T04:05:09.758Z,4.50
2022-08-11T04:08:02.066Z,4.03
2022-08-11T04:10:48.222Z,4.35
2022-08-11T04:13:24.861Z,4.63
2022-08-11T04:16:15.423Z,4.15
2022-08-11T04:19:22.764Z,4.72
2022-08-11T04:22:25.318Z,4.47
2022-08-11T04:25:22.473Z,4.32
2022-08-11T04:28:31.526Z,4.45
2022-08-11T04:31:52.042Z,4.47
2022-08-11T04:34:32.705Z,5.45
2022-08-11T04:37:34.778Z,4.95
2022-08-11T04:40:24.011Z,5.50
2022-08-11T04:43:15.730Z,5.50
2022-08-11T04:46:11.108Z,6.85
2022-08-11T04:49:03.321Z,6.25
2022-08-11T04:52:07.228Z,6.32
2022-08-11T04:55:18.166Z,6.63
2022-08-11T04:58:32.415Z,6.25
2022-08-11T05:01:42.447Z,6.78
2022-08-11T05:04:41.870Z,7.60
2022-08-11T05:07:39.906Z,7.53
2022-08-11T05:10:18.776Z,7.50
2022-08-11T05:12:55.348Z,7.30
2022-08-11T05:16:04.266Z,7.70
2022-08-11T05:18:52.236Z,7.63
2022-08-11T05:21:44.846Z,8.88
2022-08-11T05:24:49.745Z,8.35
2022-08-11T05:27:38.009Z,8.10
2022-08-11T05:30:29.420Z,8.23
2022-08-11T05:33:51.654Z,8.10
2022-08-11T05:36:31.142Z,8.30
2022-08-11T05:39:20.792Z,7.57
2022-08-11T05:42:30.468Z,8.60
2022-08-11T05:46:02.370Z,8.13
2022-08-11T05:48:36.951Z,8.50
2022-08-11T05:51:30.379Z,8.63
2022-08-11T05:54:28.639Z,9.20
2022-08-11T05:56:59.878Z,9.25
2022-08-11T05:59:28.805Z,9.10
2022-08-11T06:02:08.538Z,8.23
2022-08-11T06:04:38.278Z,9.55
2022-08-11T06:07:09.379Z,8.45
2022-08-11T06:09:51.206Z,10.15
2022-08-11T06:12:22.712Z,9.27
2022-08-11T06:14:55.532Z,8.90
2022-08-11T06:17:38.473Z,7.72
2022-08-11T06:20:12.432Z,9.35
2022-08-11T06:22:43.823Z,8.40
2022-08-11T06:25:12.422Z,7.72
2022-08-11T06:27:44.007Z,9.32
2022-08-11T06:30:14.237Z,9.05
2022-08-11T06:32:44.825Z,9.80
2022-08-11T06:35:18.460Z,9.20
2022-08-11T06:38:16.215Z,9.93
2022-08-11T06:41:25.967Z,9.43
2022-08-11T06:44:05.291Z,9.85
2022-08-11T06:46:39.163Z,8.90
2022-08-11T06:49:31.832Z,9.25
2022-08-11T06:52:04.415Z,10.63
2022-08-11T06:54:36.313Z,10.45
2022-08-11T06:57:32.150Z,11.00
2022-08-11T07:00:22.579Z,9.27
2022-08-11T07:03:13.788Z,11.18
2022-08-11T07:05:56.164Z,9.73
2022-08-11T07:09:21.217Z,11.60
2022-08-11T07:12:21.281Z,10.30
2022-08-11T07:15:13.714Z,9.43
2022-08-11T07:18:09.876Z,10.32
2022-08-11T07:21:02.152Z,10.43
2022-08-11T07:23:52.941Z,10.05
2022-08-11T07:26:42.453Z,9.98
2022-08-11T07:29:14.787Z,10.50
2022-08-11T07:31:50.617Z,11.25
2022-08-11T07:34:28.084Z,10.52
2022-08-11T07:37:00.859Z,10.27
2022-08-11T07:39:32.343Z,9.38
2022-08-11T07:42:04.969Z,10.15
2022-08-11T07:44:54.190Z,11.63
2022-08-11T07:47:41.405Z,11.35
2022-08-11T07:50:28.773Z,11.50
2022-08-11T07:53:00.466Z,11.45
2022-08-11T07:55:51.524Z,11.18
2022-08-11T07:58:45.101Z,11.18
2022-08-11T08:01:38.426Z,12.45
2022-08-11T08:04:26.959Z,11.80
2022-08-11T08:07:13.516Z,11.27
2022-08-11T08:10:00.949Z,10.77
2022-08-11T08:12:48.183Z,9.93
2022-08-11T08:15:35.703Z,9.57
2022-08-11T08:18:09.316Z,10.38
2022-08-11T08:20:55.504Z,9.77
2022-08-11T08:23:35.536Z,9.73
2022-08-11T08:28:46.552Z,8.90
2022-08-11T08:31:15.080Z,9.50
2022-08-11T08:33:43.677Z,9.20
2022-08-11T08:36:12.371Z,9.15
2022-08-11T08:38:51.221Z,8.63
2022-08-11T08:41:28.289Z,8.45
2022-08-11T08:44:34.792Z,8.73
2022-08-11T08:46:58.188Z,8.73
2022-08-11T08:49:40.084Z,8.65
2022-08-11T08:52:29.333Z,8.05
2022-08-11T08:55:01.222Z,8.98
2022-08-11T08:57:30.076Z,7.30
2022-08-11T08:59:59.605Z,8.45
2022-08-11T09:02:34.661Z,7.82
2022-08-11T09:05:04.598Z,8.15
2022-08-11T09:07:39.905Z,7.65
2022-08-11T09:10:10.839Z,7.90
2022-08-11T09:12:42.746Z,6.70
2022-08-11T09:15:12.509Z,7.00
2022-08-11T09:17:52.455Z,6.68
2022-08-11T09:20:29.421Z,6.57
2022-08-11T09:26:30.748Z,5.50
2022-08-11T09:29:00.238Z,6.53
2022-08-11T09:31:34.540Z,6.50
2022-08-11T09:34:06.835Z,5.47
2022-08-11T09:36:53.356Z,5.57
2022-08-11T09:39:39.817Z,5.75
2022-08-11T09:42:11.161Z,5.25
2022-08-11T09:44:50.820Z,4.95
2022-08-11T09:47:27.469Z,5.45
2022-08-11T09:50:01.041Z,5.07
2022-08-11T09:52:36.428Z,6.82
2022-08-11T09:55:11.127Z,4.88
2022-08-11T09:58:04.947Z,4.22
2022-08-11T10:00:38.047Z,3.95
2022-08-11T10:03:11.629Z,2.95
2022-08-11T10:05:58.468Z,4.03
2022-08-11T10:08:28.729Z,3.78
2022-08-11T10:10:57.722Z,3.28
2022-08-11T10:13:43.949Z,2.90
2022-08-11T10:16:27.928Z,3.40
2022-08-11T10:18:57.351Z,2.83
2022-08-11T10:21:28.464Z,2.97
2022-08-11T10:24:18.198Z,3.22
2022-08-11T10:27:00.636Z,2.83
2022-08-11T10:29:52.045Z,2.67
2022-08-11T10:32:58.462Z,2.72
2022-08-11T10:35:29.510Z,2.60
2022-08-11T10:38:08.222Z,4.47
2022-08-11T10:41:07.220Z,3.50
2022-08-11T10:44:02.904Z,2.10
2022-08-11T10:46:43.663Z,2.30
2022-08-11T10:49:11.478Z,2.67
2022-08-11T10:51:58.963Z,2.67
2022-08-11T10:54:44.984Z,2.70
2022-08-11T10:57:33.930Z,2.38
2022-08-11T11:00:02.075Z,2.17
2022-08-11T11:02:30.165Z,2.20
2022-08-11T11:05:03.580Z,2.17
2022-08-11T11:07:44.431Z,2.28
2022-08-11T11:10:12.418Z,2.42
2022-08-11T11:13:03.255Z,2.65
2022-08-11T11:15:51.126Z,2.40
2022-08-11T11:18:35.754Z,3.05
2022-08-11T11:21:18.724Z,3.55
2022-08-11T11:23:52.254Z,2.92
2022-08-11T11:26:28.101Z,2.50
2022-08-11T11:29:13.322Z,2.40
2022-08-11T11:31:58.498Z,2.03
2022-08-11T11:35:02.584Z,2.30
2022-08-11T11:37:36.767Z,2.47
2022-08-11T11:40:31.491Z,1.90
2022-08-11T11:43:00.478Z,2.30
2022-08-11T11:45:28.313Z,2.65
2022-08-11T11:47:59.467Z,2.28
2022-08-11T11:50:34.486Z,1.95
2022-08-11T11:53:05.741Z,1.90
2022-08-11T11:55:34.206Z,2.35
2022-08-11T11:58:22.314Z,2.05
2022-08-11T12:01:10.765Z,2.00
2022-08-11T12:03:39.630Z,1.77
2022-08-11T12:06:09.456Z,2.03
2022-08-11T12:08:37.842Z,1.80
2022-08-11T12:11:27.484Z,3.05
2022-08-11T12:14:02.127Z,3.90
2022-08-11T12:16:34.632Z,2.08
2022-08-11T12:19:11.896Z,2.10
2022-08-11T12:22:00.690Z,2.85
2022-08-11T12:24:49.228Z,1.80
2022-08-11T12:27:24.209Z,1.63
2022-08-11T12:29:57.068Z,1.98
2022-08-11T12:32:28.900Z,1.77
2022-08-11T12:34:58.050Z,1.92
2022-08-11T12:37:48.180Z,1.77
2022-08-11T12:41:11.876Z,1.90
2022-08-11T12:43:57.118Z,1.98
2022-08-11T12:46:45.949Z,2.00
2022-08-11T12:49:36.166Z,1.50
2022-08-11T12:52:14.441Z,1.80
2022-08-11T12:54:57.199Z,1.80
2022-08-11T12:57:56.254Z,1.63
2022-08-11T13:00:43.387Z,1.58
2022-08-11T13:03:30.965Z,9.35
2022-08-11T13:06:02.523Z,4.90
2022-08-11T13:08:35.624Z,2.10
2022-08-11T13:11:23.159Z,1.98
2022-08-11T13:13:57.111Z,1.90
2022-08-11T13:16:53.584Z,1.63
2022-08-11T13:19:22.949Z,1.95
2022-08-11T13:21:53.102Z,2.17
2022-08-11T13:26:50.567Z,1.80
2022-08-11T13:29:23.215Z,1.73
2022-08-11T13:31:52.750Z,1.67
2022-08-11T13:34:22.947Z,1.73
2022-08-11T13:36:56.991Z,1.67
2022-08-11T13:39:27.080Z,1.50
2022-08-11T13:44:27.277Z,1.60
2022-08-11T13:47:02.478Z,1.80
2022-08-11T13:49:39.885Z,1.90
2022-08-11T13:52:13.150Z,2.38
2022-08-11T13:54:42.615Z,2.90
2022-08-11T13:57:13.790Z,2.20
2022-08-11T14:00:13.372Z,3.00
2022-08-11T14:02:55.727Z,3.33
2022-08-11T14:05:28.175Z,3.70
2022-08-11T14:08:01.851Z,3.63
2022-08-11T14:10:32.990Z,3.05
2022-08-11T14:13:21.463Z,3.22
2022-08-11T14:15:50.693Z,14.55
2022-08-11T14:18:20.911Z,11.60
2022-08-11T14:23:46.777Z,2.67
2022-08-11T14:26:29.099Z,2.08
2022-08-11T14:28:56.525Z,1.52
2022-08-11T14:31:25.690Z,2.72
2022-08-11T14:34:00.850Z,2.60
2022-08-11T14:36:35.291Z,2.28
2022-08-11T14:39:12.893Z,2.30
2022-08-11T14:42:10.608Z,2.10
2022-08-11T14:45:03.537Z,2.55
2022-08-11T14:47:39.357Z,1.65
2022-08-11T14:50:12.728Z,1.77
2022-08-11T14:52:48.599Z,1.58
2022-08-11T14:55:35.509Z,1.55
2022-08-11T14:58:04.267Z,1.70
2022-08-11T15:00:34.384Z,1.80
2022-08-11T15:03:10.358Z,2.03
2022-08-11T15:05:56.337Z,1.67
2022-08-11T15:08:49.330Z,2.03
2022-08-11T15:11:37.413Z,2.75
2022-08-11T15:14:07.473Z,2.53
2022-08-11T15:16:55.940Z,2.35
2022-08-11T15:19:27.439Z,2.28
2022-08-11T15:22:13.270Z,5.80
2022-08-11T15:24:41.094Z,6.82
2022-08-11T15:27:39.999Z,2.83
2022-08-11T15:30:26.889Z,2.42
2022-08-11T15:33:27.675Z,2.45
2022-08-11T15:36:15.615Z,2.53
2022-08-11T15:38:49.112Z,2.05
2022-08-11T15:41:58.190Z,2.78
2022-08-11T15:45:02.606Z,1.98
2022-08-11T15:47:57.609Z,2.60
2022-08-11T15:50:37.725Z,2.58
2022-08-11T15:53:17.770Z,7.00
2022-08-11T15:55:47.512Z,4.90
2022-08-11T15:58:37.425Z,2.50
2022-08-11T16:01:24.487Z,2.30
2022-08-11T16:04:14.456Z,3.58
2022-08-11T16:07:01.894Z,2.50
2022-08-11T16:09:52.653Z,4.65
2022-08-11T16:12:32.233Z,2.72
2022-08-11T16:15:25.016Z,2.17
2022-08-11T16:17:59.108Z,2.05
2022-08-11T16:20:29.146Z,2.63
2022-08-11T16:23:01.779Z,2.10
2022-08-11T16:26:30.590Z,2.00
2022-08-11T16:28:22.357Z,2.25
2022-08-11T16:30:51.103Z,2.30
2022-08-11T16:33:48.411Z,4.57
2022-08-11T16:36:28.509Z,1.63
2022-08-11T16:38:58.056Z,3.38
2022-08-11T16:41:49.601Z,2.55
2022-08-11T16:44:38.325Z,2.70
2022-08-11T16:47:14.138Z,2.38
2022-08-11T16:49:52.852Z,2.65
2022-08-11T16:52:22.720Z,2.53
2022-08-11T16:54:51.239Z,4.80
2022-08-11T16:57:46.335Z,2.15
2022-08-11T17:00:16.766Z,2.22
2022-08-11T17:06:02.998Z,2.25
2022-08-11T17:08:57.251Z,3.00
2022-08-11T17:11:50.137Z,2.40
2022-08-11T17:14:35.991Z,2.28
2022-08-11T17:17:08.738Z,2.70
2022-08-11T17:20:41.298Z,3.20
2022-08-11T17:22:49.002Z,2.28
2022-08-11T17:25:18.564Z,2.40
2022-08-11T17:27:52.778Z,4.38
2022-08-11T17:30:46.449Z,2.58
2022-08-11T17:33:34.207Z,2.15
2022-08-11T17:36:02.755Z,1.95
2022-08-11T17:38:31.393Z,2.35
2022-08-11T17:41:24.549Z,2.78
2022-08-11T17:44:13.719Z,3.70
2022-08-11T17:47:05.200Z,2.40
2022-08-11T17:49:37.675Z,2.70
2022-08-11T17:52:33.208Z,2.47
2022-08-11T17:55:51.785Z,2.25
2022-08-11T17:58:28.834Z,2.05
2022-08-11T18:01:08.743Z,2.38
2022-08-11T18:03:41.773Z,2.30
2022-08-11T18:06:34.430Z,2.00
2022-08-11T18:09:28.577Z,32.70
2022-08-11T18:12:16.410Z,5.65
2022-08-11T18:15:09.114Z,2.50
2022-08-11T18:17:56.622Z,2.40
2022-08-11T18:20:43.581Z,2.60
2022-08-11T18:23:46.385Z,2.42
2022-08-11T18:26:39.558Z,2.63
2022-08-11T18:29:26.982Z,3.83
2022-08-11T18:32:22.178Z,2.60
2022-08-11T18:35:12.581Z,2.30
2022-08-11T18:38:05.721Z,2.60
2022-08-11T18:40:54.323Z,2.50
2022-08-11T18:43:43.189Z,2.22
2022-08-11T18:46:32.053Z,2.28
2022-08-11T18:50:02.061Z,1.90
2022-08-11T18:52:43.505Z,2.45
2022-08-11T18:55:35.939Z,2.25
2022-08-11T18:58:25.175Z,2.40
2022-08-11T19:01:15.034Z,2.97
2022-08-11T19:04:10.852Z,2.00
2022-08-11T19:07:06.674Z,2.22
2022-08-11T19:10:02.059Z,2.85
2022-08-11T19:12:55.983Z,2.58
2022-08-11T19:15:43.473Z,2.85
2022-08-11T19:18:33.501Z,2.53
2022-08-11T19:21:21.879Z,3.53
2022-08-11T19:24:12.641Z,2.70
2022-08-11T19:27:00.007Z,2.40
2022-08-11T19:30:12.073Z,2.47
2022-08-11T19:32:56.689Z,2.35
2022-08-11T19:35:44.125Z,2.65
2022-08-11T19:38:30.993Z,2.80
2022-08-11T19:41:51.827Z,2.40
2022-08-11T19:44:26.108Z,2.50
2022-08-11T19:47:13.442Z,2.40
2022-08-11T19:50:01.808Z,2.60
2022-08-11T19:52:49.437Z,2.38
2022-08-11T19:55:36.796Z,2.20
2022-08-11T19:58:26.578Z,2.10
2022-08-11T20:01:13.481Z,2.30
2022-08-11T20:04:00.031Z,2.45
2022-08-11T20:06:47.237Z,2.55
2022-08-11T20:10:05.261Z,2.85
2022-08-11T20:12:42.503Z,3.65
2022-08-11T20:15:29.974Z,2.70
2022-08-11T20:18:17.822Z,3.13
2022-08-11T20:21:24.881Z,3.20
2022-08-11T20:24:17.142Z,3.13
2022-08-11T20:27:04.475Z,2.88
2022-08-11T20:29:54.457Z,3.10
2022-08-11T20:32:41.025Z,3.35
2022-08-11T20:35:28.548Z,2.45
2022-08-11T20:38:15.533Z,2.80
2022-08-11T20:41:03.113Z,3.63
2022-08-11T20:44:06.034Z,2.58
2022-08-11T20:46:58.040Z,3.05
2022-08-11T20:49:53.842Z,2.60
2022-08-11T20:52:47.474Z,2.30
2022-08-11T20:55:52.186Z,2.83
2022-08-11T20:59:11.513Z,2.80
2022-08-11T21:01:47.366Z,6.13
2022-08-11T21:04:54.512Z,2.38
2022-08-11T21:07:43.854Z,2.60
2022-08-11T21:10:51.526Z,2.97
2022-08-11T21:13:41.577Z,2.80
2022-08-11T21:16:30.798Z,2.90
2022-08-11T21:19:59.605Z,3.13
2022-08-11T21:22:58.752Z,2.75
2022-08-11T21:25:51.885Z,2.80
2022-08-11T21:31:27.199Z,3.10
2022-08-11T21:34:14.721Z,3.15
2022-08-11T21:37:03.165Z,3.47
2022-08-11T21:39:50.426Z,3.53
2022-08-11T21:42:38.113Z,2.90
2022-08-11T21:45:27.800Z,3.72
2022-08-11T21:48:15.623Z,2.90
2022-08-11T21:51:01.717Z,3.15
2022-08-11T21:53:49.523Z,4.13
2022-08-11T21:56:36.666Z,3.22
2022-08-11T21:59:23.746Z,3.13
2022-08-11T22:02:13.064Z,3.47
2022-08-11T22:05:00.925Z,3.17
2022-08-11T22:07:47.470Z,3.13
2022-08-11T22:10:42.350Z,3.28
2022-08-11T22:13:30.848Z,3.08
2022-08-11T22:16:18.980Z,2.85
2022-08-11T22:19:05.871Z,3.63
2022-08-11T22:22:02.826Z,3.30
2022-08-11T22:24:53.018Z,3.33
2022-08-11T22:27:39.859Z,2.88
2022-08-11T22:30:27.713Z,2.80
2022-08-11T22:33:17.123Z,3.10
2022-08-11T22:36:05.093Z,3.20
2022-08-11T22:38:55.699Z,2.90
2022-08-11T22:41:42.991Z,3.80
2022-08-11T22:44:29.551Z,3.17
2022-08-11T22:47:18.450Z,3.70
2022-08-11T22:50:08.206Z,3.25
2022-08-11T22:52:55.602Z,3.40
2022-08-11T22:55:43.632Z,3.28
2022-08-11T22:58:30.993Z,3.40
2022-08-11T23:01:17.540Z,3.50
2022-08-11T23:04:05.999Z,3.45
2022-08-11T23:06:56.961Z,3.90
2022-08-11T23:12:31.821Z,3.78
2022-08-11T23:15:19.212Z,2.92
2022-08-11T23:18:06.190Z,3.03
2022-08-11T23:20:53.762Z,3.38
2022-08-11T23:23:46.846Z,3.22
2022-08-11T23:26:35.997Z,3.78
2022-08-11T23:29:23.434Z,4.03
2022-08-11T23:32:11.308Z,3.40
2022-08-11T23:35:38.984Z,3.70
2022-08-11T23:38:11.966Z,4.22
2022-08-11T23:40:58.377Z,3.67
2022-08-11T23:43:44.259Z,3.25
2022-08-11T23:46:30.063Z,3.08
2022-08-11T23:49:20.892Z,3.78
2022-08-11T23:52:08.501Z,2.88
2022-08-11T23:54:55.014Z,3.20
2022-08-11T23:57:48.672Z,3.00
